createdAt,value
2022-10-09T00:00:23.495Z,2.30
2022-10-09T00:03:10.963Z,2.53
2022-10-09T00:05:58.664Z,2.50
2022-10-09T00:08:46.056Z,2.90
2022-10-09T00:11:34.345Z,2.03
2022-10-09T00:14:21.709Z,2.73
2022-10-09T00:17:09.181Z,2.20
2022-10-09T00:19:56.703Z,2.77
2022-10-09T00:22:44.122Z,2.10
2022-10-09T00:25:31.634Z,2.50
2022-10-09T00:28:19.168Z,2.83
2022-10-09T00:31:07.281Z,2.90
2022-10-09T00:33:54.659Z,2.97
2022-10-09T00:36:41.984Z,2.20
2022-10-09T00:39:29.424Z,2.23
2022-10-09T00:42:16.825Z,3.20
2022-10-09T00:45:04.835Z,1.80
2022-10-09T00:47:53.923Z,2.10
2022-10-09T00:50:42.740Z,2.20
2022-10-09T00:53:31.175Z,3.17
2022-10-09T00:56:18.876Z,2.07
2022-10-09T00:59:06.681Z,2.37
2022-10-09T01:01:54.232Z,2.10
2022-10-09T01:04:41.658Z,2.00
2022-10-09T01:07:36.029Z,2.83
2022-10-09T01:10:42.317Z,2.10
2022-10-09T01:13:29.640Z,2.50
2022-10-09T01:16:24.021Z,2.47
2022-10-09T01:19:27.102Z,2.20
2022-10-09T01:22:22.342Z,2.30
2022-10-09T01:25:18.916Z,2.60
2022-10-09T01:28:07.200Z,2.40
2022-10-09T01:30:54.647Z,2.33
2022-10-09T01:33:42.271Z,2.90
2022-10-09T01:36:31.188Z,2.00
2022-10-09T01:39:20.380Z,2.57
2022-10-09T01:42:07.882Z,2.70
2022-10-09T01:44:55.335Z,2.37
2022-10-09T01:47:42.976Z,1.90
2022-10-09T01:50:32.875Z,2.67
2022-10-09T01:53:21.723Z,2.40
2022-10-09T01:56:12.063Z,1.73
2022-10-09T01:59:01.722Z,1.77
2022-10-09T02:01:50.469Z,1.97
2022-10-09T02:04:39.614Z,2.20
2022-10-09T02:07:27.223Z,2.47
2022-10-09T02:10:15.720Z,2.40
2022-10-09T02:13:03.433Z,2.90
2022-10-09T02:15:53.319Z,2.33
2022-10-09T02:18:42.892Z,3.30
2022-10-09T02:21:35.948Z,2.13
2022-10-09T02:24:23.700Z,2.60
2022-10-09T02:27:11.767Z,2.70
2022-10-09T02:29:59.867Z,2.53
2022-10-09T02:32:51.885Z,2.53
2022-10-09T02:35:39.949Z,3.10
2022-10-09T02:38:27.284Z,2.53
2022-10-09T02:41:14.588Z,2.20
2022-10-09T02:44:02.178Z,2.27
2022-10-09T02:46:49.544Z,2.13
2022-10-09T02:49:36.934Z,2.50
2022-10-09T02:52:24.293Z,2.10
2022-10-09T02:55:11.707Z,2.90
2022-10-09T02:57:59.065Z,2.90
2022-10-09T03:00:50.404Z,2.43
2022-10-09T03:03:37.747Z,2.67
2022-10-09T03:06:25.857Z,3.23
2022-10-09T03:09:13.187Z,2.97
2022-10-09T03:12:00.612Z,2.83
2022-10-09T03:14:48.067Z,3.30
2022-10-09T03:17:35.385Z,3.13
2022-10-09T03:20:22.742Z,2.80
2022-10-09T03:23:10.049Z,2.80
2022-10-09T03:26:01.027Z,3.00
2022-10-09T03:28:49.288Z,3.03
2022-10-09T03:31:51.857Z,2.93
2022-10-09T03:34:39.648Z,3.23
2022-10-09T03:37:27.045Z,2.90
2022-10-09T03:40:14.403Z,3.77
2022-10-09T03:43:01.720Z,3.13
2022-10-09T03:45:49.068Z,3.63
2022-10-09T03:48:37.099Z,3.80
2022-10-09T03:51:24.435Z,3.10
2022-10-09T03:54:11.786Z,3.57
2022-10-09T03:56:59.182Z,3.50
2022-10-09T03:59:46.514Z,3.00
2022-10-09T04:02:34.319Z,2.87
2022-10-09T04:05:21.730Z,3.40
2022-10-09T04:08:09.387Z,4.27
2022-10-09T04:10:57.680Z,2.60
2022-10-09T04:13:45.032Z,3.13
2022-10-09T04:16:32.418Z,2.60
2022-10-09T04:19:19.845Z,2.70
2022-10-09T04:22:07.171Z,3.47
2022-10-09T04:24:54.527Z,2.87
2022-10-09T04:27:41.972Z,3.23
2022-10-09T04:30:29.309Z,2.83
2022-10-09T04:33:16.654Z,3.53
2022-10-09T04:36:04.117Z,2.93
2022-10-09T04:38:52.600Z,3.10
2022-10-09T04:41:39.953Z,2.83
2022-10-09T04:44:27.385Z,2.60
2022-10-09T04:47:14.858Z,3.80
2022-10-09T04:50:02.229Z,3.40
2022-10-09T04:52:49.932Z,4.83
2022-10-09T04:55:41.497Z,10.13
2022-10-09T04:58:40.600Z,12.80
2022-10-09T05:01:28.548Z,6.60
2022-10-09T05:04:15.909Z,5.70
2022-10-09T05:07:03.270Z,3.77
2022-10-09T05:09:50.591Z,3.93
2022-10-09T05:12:37.927Z,3.43
2022-10-09T05:15:25.336Z,3.80
2022-10-09T05:18:12.683Z,3.70
2022-10-09T05:21:00.148Z,3.43
2022-10-09T05:23:47.733Z,3.80
2022-10-09T05:26:35.074Z,2.77
2022-10-09T05:29:22.567Z,3.27
2022-10-09T05:32:09.931Z,3.30
2022-10-09T05:34:57.283Z,3.47
2022-10-09T05:37:45.564Z,2.93
2022-10-09T05:40:32.928Z,3.13
2022-10-09T05:43:20.564Z,2.80
2022-10-09T05:46:26.034Z,3.03
2022-10-09T05:49:13.359Z,3.40
2022-10-09T05:52:00.708Z,3.27
2022-10-09T05:54:48.059Z,3.10
2022-10-09T05:57:35.388Z,3.57
2022-10-09T06:00:22.800Z,3.93
2022-10-09T06:03:10.164Z,3.97
2022-10-09T06:06:01.802Z,2.97
2022-10-09T06:08:49.530Z,3.93
2022-10-09T06:11:38.147Z,3.83
2022-10-09T06:14:26.071Z,2.90
2022-10-09T06:17:13.428Z,3.40
2022-10-09T06:20:01.018Z,3.60
2022-10-09T06:22:48.571Z,3.90
2022-10-09T06:25:36.015Z,4.00
2022-10-09T06:28:23.614Z,3.87
2022-10-09T06:31:14.854Z,3.33
2022-10-09T06:34:06.053Z,3.77
2022-10-09T06:36:53.400Z,3.90
2022-10-09T06:39:40.754Z,6.17
2022-10-09T06:42:28.112Z,5.13
2022-10-09T06:45:15.465Z,5.30
2022-10-09T06:48:02.837Z,3.90
2022-10-09T06:50:50.212Z,4.00
2022-10-09T06:53:39.191Z,4.10
2022-10-09T06:56:27.578Z,4.00
2022-10-09T06:59:14.991Z,4.53
2022-10-09T07:02:02.527Z,3.90
2022-10-09T07:04:49.930Z,4.67
2022-10-09T07:07:40.038Z,4.10
2022-10-09T07:10:28.042Z,3.57
2022-10-09T07:13:15.453Z,4.60
2022-10-09T07:16:05.013Z,3.40
2022-10-09T07:18:52.819Z,4.20
2022-10-09T07:21:41.743Z,4.03
2022-10-09T07:24:29.108Z,4.63
2022-10-09T07:27:16.734Z,3.70
2022-10-09T07:30:04.681Z,3.87
2022-10-09T07:32:52.246Z,3.80
2022-10-09T07:35:39.584Z,3.60
2022-10-09T07:38:27.282Z,3.13
2022-10-09T07:41:14.626Z,3.87
2022-10-09T07:44:02.367Z,3.63
2022-10-09T07:46:51.429Z,3.80
2022-10-09T07:49:38.840Z,4.00
2022-10-09T07:52:26.151Z,3.00
2022-10-09T07:55:13.531Z,3.47
2022-10-09T07:58:00.892Z,4.03
2022-10-09T08:00:48.272Z,3.20
2022-10-09T08:03:36.449Z,3.33
2022-10-09T08:06:23.880Z,3.70
2022-10-09T08:09:11.204Z,3.50
2022-10-09T08:11:58.581Z,3.20
2022-10-09T08:14:48.941Z,3.57
2022-10-09T08:17:36.297Z,3.17
2022-10-09T08:20:23.751Z,3.33
2022-10-09T08:23:11.220Z,3.13
2022-10-09T08:25:58.692Z,3.00
2022-10-09T08:28:50.350Z,2.87
2022-10-09T08:31:37.819Z,3.20
2022-10-09T08:34:25.252Z,2.83
2022-10-09T08:37:12.666Z,2.50
2022-10-09T08:40:00.034Z,2.93
2022-10-09T08:42:53.849Z,2.90
2022-10-09T08:45:42.127Z,2.70
2022-10-09T08:48:30.280Z,3.10
2022-10-09T08:51:26.861Z,3.17
2022-10-09T08:54:22.258Z,4.77
2022-10-09T08:57:11.788Z,3.27
2022-10-09T08:59:59.153Z,2.87
2022-10-09T09:02:53.988Z,4.00
2022-10-09T09:05:41.286Z,4.30
2022-10-09T09:08:44.125Z,3.63
2022-10-09T09:11:37.655Z,2.33
2022-10-09T09:14:48.058Z,2.00
2022-10-09T09:17:44.704Z,2.28
2022-10-09T09:20:40.044Z,2.25
2022-10-09T09:23:29.948Z,2.17
2022-10-09T09:26:18.778Z,2.30
2022-10-09T09:29:06.367Z,2.13
2022-10-09T09:31:57.689Z,2.28
2022-10-09T09:34:45.263Z,2.25
2022-10-09T09:37:32.652Z,2.22
2022-10-09T09:40:38.020Z,2.10
2022-10-09T09:43:27.146Z,2.28
2022-10-09T09:46:26.469Z,2.05
2022-10-09T09:49:18.015Z,2.03
2022-10-09T09:52:08.967Z,2.15
2022-10-09T09:54:57.489Z,1.88
2022-10-09T09:57:45.798Z,1.80
2022-10-09T10:00:33.726Z,1.92
2022-10-09T10:03:21.315Z,2.00
2022-10-09T10:06:21.257Z,1.98
2022-10-09T10:09:18.434Z,1.80
2022-10-09T10:12:06.907Z,2.15
2022-10-09T10:14:54.260Z,1.70
2022-10-09T10:17:41.628Z,1.98
2022-10-09T10:20:30.250Z,1.83
2022-10-09T10:23:36.311Z,2.08
2022-10-09T10:26:42.166Z,1.90
2022-10-09T10:29:40.945Z,2.05
2022-10-09T10:32:32.272Z,1.58
2022-10-09T10:35:25.362Z,1.50
2022-10-09T10:38:20.294Z,1.67
2022-10-09T10:41:17.697Z,1.80
2022-10-09T10:44:10.051Z,1.30
2022-10-09T10:47:00.997Z,1.27
2022-10-09T10:49:48.375Z,1.45
2022-10-09T10:52:54.952Z,1.48
2022-10-09T10:55:53.524Z,1.58
2022-10-09T10:58:52.404Z,1.17
2022-10-09T11:01:58.528Z,1.38
2022-10-09T11:05:02.718Z,1.33
2022-10-09T11:07:59.913Z,1.40
2022-10-09T11:10:50.343Z,1.50
2022-10-09T11:13:46.907Z,1.65
2022-10-09T11:16:40.606Z,1.58
2022-10-09T11:19:34.026Z,1.70
2022-10-09T11:22:40.966Z,1.80
2022-10-09T11:25:36.933Z,1.30
2022-10-09T11:28:28.925Z,1.63
2022-10-09T11:31:29.067Z,1.52
2022-10-09T11:34:36.711Z,1.90
2022-10-09T11:37:26.057Z,1.42
2022-10-09T11:40:22.048Z,1.77
2022-10-09T11:43:28.612Z,1.67
2022-10-09T11:46:27.711Z,1.52
2022-10-09T11:49:22.389Z,2.00
2022-10-09T11:52:24.870Z,2.08
2022-10-09T11:55:20.404Z,1.60
2022-10-09T11:58:18.329Z,1.58
2022-10-09T12:01:11.388Z,1.45
2022-10-09T12:04:06.287Z,1.40
2022-10-09T12:06:57.234Z,1.50
2022-10-09T12:09:48.273Z,1.20
2022-10-09T12:12:38.555Z,1.90
2022-10-09T12:15:46.191Z,1.70
2022-10-09T12:18:39.019Z,1.63
2022-10-09T12:21:28.601Z,1.52
2022-10-09T12:24:17.315Z,1.80
2022-10-09T12:27:05.339Z,1.73
2022-10-09T12:29:58.185Z,1.65
2022-10-09T12:32:48.038Z,1.80
2022-10-09T12:35:37.081Z,1.75
2022-10-09T12:38:34.460Z,1.45
2022-10-09T12:41:24.874Z,1.58
2022-10-09T12:44:18.122Z,1.55
2022-10-09T12:47:06.911Z,1.65
2022-10-09T12:50:13.108Z,2.13
2022-10-09T12:53:01.649Z,1.80
2022-10-09T12:55:54.467Z,1.50
2022-10-09T12:58:43.516Z,1.65
2022-10-09T13:01:31.390Z,1.58
2022-10-09T13:04:36.948Z,1.60
2022-10-09T13:07:25.995Z,1.40
2022-10-09T13:10:21.424Z,1.75
2022-10-09T13:13:19.187Z,1.55
2022-10-09T13:16:11.417Z,1.45
2022-10-09T13:18:59.787Z,1.65
2022-10-09T13:21:47.142Z,1.67
2022-10-09T13:24:35.828Z,1.75
2022-10-09T13:27:33.525Z,1.30
2022-10-09T13:30:20.975Z,1.73
2022-10-09T13:33:13.534Z,1.60
2022-10-09T13:36:00.885Z,1.88
2022-10-09T13:38:48.422Z,1.73
2022-10-09T13:41:35.802Z,1.70
2022-10-09T13:44:23.230Z,1.70
2022-10-09T13:47:10.874Z,1.25
2022-10-09T13:49:58.208Z,1.90
2022-10-09T13:52:45.613Z,1.40
2022-10-09T13:55:33.022Z,1.83
2022-10-09T13:58:23.098Z,1.73
2022-10-09T14:01:10.510Z,1.58
2022-10-09T14:03:57.870Z,2.00
2022-10-09T14:06:45.219Z,1.60
2022-10-09T14:09:32.521Z,1.80
2022-10-09T14:12:19.909Z,1.50
2022-10-09T14:15:07.617Z,1.93
2022-10-09T14:17:54.981Z,1.90
2022-10-09T14:20:42.328Z,1.83
2022-10-09T14:23:29.691Z,1.90
2022-10-09T14:26:17.025Z,2.10
2022-10-09T14:29:04.474Z,2.13
2022-10-09T14:31:51.933Z,2.13
2022-10-09T14:34:39.539Z,2.10
2022-10-09T14:37:41.214Z,1.80
2022-10-09T14:40:29.454Z,1.60
2022-10-09T14:43:17.723Z,1.30
2022-10-09T14:46:06.556Z,1.70
2022-10-09T14:48:55.387Z,1.70
2022-10-09T14:51:42.835Z,1.40
2022-10-09T14:54:30.191Z,1.43
2022-10-09T14:57:17.551Z,1.70
2022-10-09T15:00:08.051Z,1.50
2022-10-09T15:02:58.865Z,1.57
2022-10-09T15:05:47.081Z,1.80
2022-10-09T15:08:36.151Z,1.60
2022-10-09T15:11:23.939Z,1.60
2022-10-09T15:14:11.514Z,1.50
2022-10-09T15:16:58.942Z,1.40
2022-10-09T15:19:46.303Z,1.40
2022-10-09T15:22:33.692Z,1.50
2022-10-09T15:25:22.092Z,1.87
2022-10-09T15:28:09.460Z,1.57
2022-10-09T15:31:00.235Z,1.50
2022-10-09T15:33:47.581Z,1.80
2022-10-09T15:36:36.641Z,1.53
2022-10-09T15:39:24.003Z,1.53
2022-10-09T15:42:11.372Z,1.60
2022-10-09T15:44:58.693Z,1.37
2022-10-09T15:47:52.973Z,1.43
2022-10-09T15:50:41.099Z,1.70
2022-10-09T15:53:28.442Z,1.53
2022-10-09T15:56:17.513Z,2.20
2022-10-09T15:59:04.927Z,2.00
2022-10-09T16:01:52.339Z,1.83
2022-10-09T16:04:40.009Z,1.67
2022-10-09T16:07:27.330Z,1.90
2022-10-09T16:10:14.770Z,2.30
2022-10-09T16:13:02.109Z,1.80
2022-10-09T16:15:49.890Z,2.67
2022-10-09T16:18:37.302Z,2.17
2022-10-09T16:21:26.474Z,1.90
2022-10-09T16:24:13.804Z,2.20
2022-10-09T16:27:01.404Z,2.40
2022-10-09T16:29:48.748Z,2.53
2022-10-09T16:32:36.086Z,1.87
2022-10-09T16:35:23.416Z,2.00
2022-10-09T16:38:10.783Z,2.17
2022-10-09T16:41:01.935Z,1.90
2022-10-09T16:43:51.165Z,2.47
2022-10-09T16:46:38.525Z,2.63
2022-10-09T16:49:25.872Z,2.65
2022-10-09T16:52:13.218Z,2.30
2022-10-09T16:55:00.896Z,2.50
2022-10-09T16:57:48.714Z,2.90
2022-10-09T17:00:36.271Z,3.10
2022-10-09T17:03:23.706Z,2.67
2022-10-09T17:06:12.676Z,2.80
2022-10-09T17:09:00.495Z,2.43
2022-10-09T17:11:48.327Z,2.70
2022-10-09T17:14:36.892Z,2.93
2022-10-09T17:17:24.292Z,2.70
2022-10-09T17:20:12.870Z,2.67
2022-10-09T17:23:00.638Z,2.60
2022-10-09T17:25:48.015Z,2.50
2022-10-09T17:28:35.974Z,2.80
2022-10-09T17:31:24.193Z,3.13
2022-10-09T17:34:12.304Z,3.00
2022-10-09T17:36:59.655Z,3.10
2022-10-09T17:39:51.901Z,3.27
2022-10-09T17:42:39.642Z,2.80
2022-10-09T17:45:27.018Z,2.70
2022-10-09T17:48:14.437Z,3.30
2022-10-09T17:51:03.740Z,3.00
2022-10-09T17:53:51.125Z,2.37
2022-10-09T17:56:38.827Z,2.70
2022-10-09T17:59:26.779Z,2.90
2022-10-09T18:02:14.136Z,2.43
2022-10-09T18:05:01.490Z,2.50
2022-10-09T18:07:49.157Z,2.00
2022-10-09T18:10:39.675Z,2.30
2022-10-09T18:13:27.206Z,2.23
2022-10-09T18:16:16.345Z,2.13
2022-10-09T18:19:08.048Z,2.00
2022-10-09T18:21:55.387Z,2.30
2022-10-09T18:24:42.758Z,1.90
2022-10-09T18:27:30.206Z,2.50
2022-10-09T18:30:17.624Z,2.50
2022-10-09T18:33:04.957Z,2.60
2022-10-09T18:35:52.292Z,3.13
2022-10-09T18:38:39.633Z,3.83
2022-10-09T18:41:27.022Z,2.77
2022-10-09T18:44:17.306Z,3.03
2022-10-09T18:47:05.068Z,2.57
2022-10-09T18:49:54.081Z,2.80
2022-10-09T18:52:42.268Z,2.37
2022-10-09T18:55:29.698Z,2.60
2022-10-09T18:58:17.108Z,2.73
2022-10-09T19:01:07.534Z,2.37
2022-10-09T19:03:55.164Z,2.20
2022-10-09T19:06:42.542Z,2.20
2022-10-09T19:09:29.862Z,2.30
2022-10-09T19:12:20.188Z,2.30
2022-10-09T19:15:11.934Z,2.47
2022-10-09T19:17:59.718Z,2.40
2022-10-09T19:20:47.165Z,2.40
2022-10-09T19:23:34.562Z,2.17
2022-10-09T19:26:22.345Z,1.83
2022-10-09T19:29:10.191Z,2.23
2022-10-09T19:31:57.552Z,2.30
2022-10-09T19:34:45.231Z,1.83
2022-10-09T19:37:32.702Z,2.20
2022-10-09T19:40:20.078Z,2.50
2022-10-09T19:43:07.478Z,2.00
2022-10-09T19:46:01.583Z,2.20
2022-10-09T19:48:52.162Z,2.00
2022-10-09T19:51:39.554Z,2.70
2022-10-09T19:54:26.920Z,3.20
2022-10-09T19:57:14.279Z,2.20
2022-10-09T20:00:01.717Z,2.27
2022-10-09T20:02:49.332Z,3.13
2022-10-09T20:05:36.880Z,1.90
2022-10-09T20:08:24.261Z,2.00
2022-10-09T20:11:13.695Z,1.83
2022-10-09T20:14:01.392Z,2.10
2022-10-09T20:16:48.782Z,2.30
2022-10-09T20:19:36.158Z,2.00
2022-10-09T20:22:23.580Z,2.20
2022-10-09T20:25:10.982Z,1.80
2022-10-09T20:27:58.337Z,2.00
2022-10-09T20:30:56.051Z,2.13
2022-10-09T20:33:43.753Z,1.93
2022-10-09T20:36:32.433Z,2.00
2022-10-09T20:39:21.305Z,1.93
2022-10-09T20:42:09.362Z,2.13
2022-10-09T20:44:56.732Z,2.23
2022-10-09T20:47:44.106Z,2.20
2022-10-09T20:50:31.464Z,2.30
2022-10-09T20:53:18.883Z,1.93
2022-10-09T20:56:07.607Z,2.30
2022-10-09T20:58:55.675Z,2.57
2022-10-09T21:01:43.638Z,2.10
2022-10-09T21:04:32.087Z,2.07
2022-10-09T21:07:19.456Z,1.60
2022-10-09T21:10:07.067Z,1.90
2022-10-09T21:12:54.438Z,1.70
2022-10-09T21:15:45.074Z,2.03
2022-10-09T21:18:32.435Z,2.10
2022-10-09T21:21:19.814Z,2.00
2022-10-09T21:24:07.238Z,2.67
2022-10-09T21:26:54.675Z,2.00
2022-10-09T21:29:42.072Z,2.60
2022-10-09T21:32:29.423Z,2.33
2022-10-09T21:35:16.795Z,2.33
2022-10-09T21:38:04.156Z,1.90
2022-10-09T21:40:51.625Z,2.03
2022-10-09T21:43:38.982Z,1.83
2022-10-09T21:46:26.398Z,2.10
2022-10-09T21:49:19.858Z,1.90
2022-10-09T21:52:07.215Z,2.10
2022-10-09T21:54:54.591Z,2.27
2022-10-09T21:57:45.081Z,2.37
2022-10-09T22:00:32.994Z,1.83
2022-10-09T22:03:20.336Z,2.10
2022-10-09T22:06:08.967Z,2.10
2022-10-09T22:08:56.322Z,2.10
2022-10-09T22:11:44.871Z,2.10
2022-10-09T22:14:32.311Z,2.43
2022-10-09T22:17:19.894Z,2.00
2022-10-09T22:20:07.467Z,2.23
2022-10-09T22:22:54.843Z,1.90
2022-10-09T22:25:42.228Z,1.97
2022-10-09T22:28:29.589Z,2.10
2022-10-09T22:31:18.842Z,2.60
2022-10-09T22:34:06.223Z,2.33
2022-10-09T22:36:53.604Z,2.17
2022-10-09T22:39:40.954Z,2.40
2022-10-09T22:42:28.375Z,2.27
2022-10-09T22:45:15.748Z,2.17
2022-10-09T22:48:03.097Z,1.70
2022-10-09T22:50:50.455Z,2.07
2022-10-09T22:53:38.252Z,1.77
2022-10-09T22:56:26.664Z,1.93
2022-10-09T22:59:14.966Z,1.90
2022-10-09T23:02:02.347Z,2.20
2022-10-09T23:04:49.724Z,2.20
2022-10-09T23:07:37.103Z,2.00
2022-10-09T23:10:24.435Z,2.00
2022-10-09T23:13:11.744Z,1.90
2022-10-09T23:16:02.607Z,1.83
2022-10-09T23:18:50.220Z,1.90
2022-10-09T23:21:38.759Z,2.37
2022-10-09T23:24:26.083Z,2.00
2022-10-09T23:27:13.478Z,1.90
2022-10-09T23:30:00.842Z,1.60
2022-10-09T23:32:48.461Z,2.33
2022-10-09T23:35:40.197Z,1.90
2022-10-09T23:38:27.544Z,2.10
2022-10-09T23:41:16.156Z,1.80
2022-10-09T23:44:03.630Z,2.00
2022-10-09T23:46:51.023Z,2.33
2022-10-09T23:49:38.440Z,1.80
2022-10-09T23:52:25.826Z,1.80
2022-10-09T23:55:13.268Z,2.00
2022-10-09T23:58:00.643Z,2.40
